Time;durP1;ratioP1;P1;durP2;ratioP2;P2;SDS_P1;SDS_P2;PMS_P1;PMS_P2;Temp;Humidity;BMP_temperature;BMP_pressure;BME280_temperature;BME280_humidity;BME280_pressure;Samples;Min_cycle;Max_cycle;Signal;HPM_P1;HPM_P2
2022/12/26 00:01:59;;;;;;;43.50;28.77;;;9.40;99.90;;;;;;5049348;28;20025;-71
2022/12/26 00:04:25;;;;;;;36.95;24.73;;;9.30;99.90;;;;;;5056489;28;20519;-70
2022/12/26 00:06:50;;;;;;;34.00;21.02;;;9.40;99.90;;;;;;5045752;28;20156;-70
2022/12/26 00:09:16;;;;;;;35.65;22.60;;;9.40;99.90;;;;;;5036659;28;20051;-71
2022/12/26 00:11:42;;;;;;;36.15;23.05;;;9.40;99.90;;;;;;5049403;28;20433;-71
2022/12/26 00:14:11;;;;;;;36.25;24.55;;;9.50;99.90;;;;;;5056532;28;20028;-70
2022/12/26 00:16:39;;;;;;;37.00;24.65;;;9.40;99.90;;;;;;5038591;28;20040;-76
2022/12/26 00:19:05;;;;;;;36.00;23.58;;;9.50;99.90;;;;;;5054387;28;20025;-72
2022/12/26 00:21:31;;;;;;;36.05;25.05;;;9.50;99.90;;;;;;5055559;28;20052;-70
2022/12/26 00:23:58;;;;;;;40.78;26.08;;;9.60;99.90;;;;;;5056230;28;20476;-70
2022/12/26 00:26:28;;;;;;;37.60;27.88;;;9.50;99.90;;;;;;5037836;28;20148;-70
2022/12/26 00:28:56;;;;;;;38.13;25.02;;;9.50;99.90;;;;;;5038100;28;20028;-70
2022/12/26 00:31:24;;;;;;;42.67;25.92;;;9.40;99.90;;;;;;5047431;28;20037;-70
2022/12/26 00:33:50;;;;;;;39.88;27.52;;;9.50;99.90;;;;;;5051026;28;20029;-70
2022/12/26 00:36:22;;;;;;;48.90;30.13;;;9.50;99.90;;;;;;5055903;28;20032;-70
2022/12/26 00:38:49;;;;;;;42.05;28.77;;;9.40;99.90;;;;;;5055071;28;20557;-75
2022/12/26 00:41:16;;;;;;;52.35;34.40;;;9.40;99.90;;;;;;5056036;28;20044;-70
2022/12/26 00:43:42;;;;;;;46.10;31.52;;;9.30;99.90;;;;;;5055816;28;20025;-70
2022/12/26 00:46:08;;;;;;;50.40;31.55;;;9.30;99.90;;;;;;5055910;28;20032;-71
2022/12/26 00:48:34;;;;;;;52.47;32.60;;;9.20;99.90;;;;;;5055942;28;20029;-69
2022/12/26 00:51:00;;;;;;;48.33;30.98;;;9.30;99.90;;;;;;5055433;28;20125;-70
2022/12/26 00:53:27;;;;;;;38.97;27.27;;;9.20;99.90;;;;;;5055655;28;20021;-73
2022/12/26 00:55:53;;;;;;;35.10;23.55;;;9.20;99.90;;;;;;5055280;28;20563;-75
2022/12/26 00:58:19;;;;;;;40.35;27.02;;;9.20;99.90;;;;;;5037519;28;20065;-76
2022/12/26 01:00:46;;;;;;;43.75;28.50;;;9.10;99.90;;;;;;5045018;28;20035;-71
2022/12/26 01:03:13;;;;;;;39.90;25.20;;;9.20;99.90;;;;;;5037391;28;20029;-78
2022/12/26 01:05:49;;;;;;;37.83;22.67;;;9.20;99.90;;;;;;5051949;28;20033;-73
2022/12/26 01:08:17;;;;;;;35.22;23.80;;;9.20;99.90;;;;;;5047065;28;20112;-70
2022/12/26 01:10:44;;;;;;;36.65;23.88;;;9.20;99.90;;;;;;5055454;28;20021;-70
2022/12/26 01:13:10;;;;;;;37.13;24.33;;;9.20;99.90;;;;;;5044627;28;20026;-74
2022/12/26 01:15:36;;;;;;;38.30;25.90;;;9.20;99.90;;;;;;5052994;28;20032;-75
2022/12/26 01:18:02;;;;;;;40.53;26.20;;;9.20;99.90;;;;;;5054819;28;20574;-70
2022/12/26 01:20:28;;;;;;;45.80;26.77;;;9.20;99.90;;;;;;5054120;28;20123;-71
2022/12/26 01:22:55;;;;;;;39.65;25.73;;;9.10;99.90;;;;;;5054612;28;20028;-70
2022/12/26 01:25:21;;;;;;;46.75;28.45;;;9.10;99.90;;;;;;5054816;28;20025;-76
2022/12/26 01:27:47;;;;;;;45.63;28.70;;;9.10;99.90;;;;;;5054395;28;20033;-76
2022/12/26 01:30:13;;;;;;;42.30;27.10;;;9.10;99.90;;;;;;5054257;28;20491;-69
2022/12/26 01:32:39;;;;;;;37.22;25.95;;;8.90;99.90;;;;;;5053357;28;20032;-75
2022/12/26 01:35:05;;;;;;;37.65;25.15;;;9.00;99.90;;;;;;5054092;28;20029;-74
2022/12/26 01:37:34;;;;;;;37.95;25.85;;;9.00;99.90;;;;;;5053688;28;20048;-70
2022/12/26 01:40:00;;;;;;;42.13;26.95;;;9.10;99.90;;;;;;5019963;28;20472;-69
2022/12/26 01:42:34;;;;;;;41.25;26.38;;;9.10;99.90;;;;;;5018406;28;20037;-73
2022/12/26 01:45:16;;;;;;;42.42;28.05;;;9.10;99.90;;;;;;5046845;28;20021;-69
2022/12/26 01:48:00;;;;;;;37.23;25.30;;;9.10;99.90;;;;;;5052013;28;20470;-70
2022/12/26 01:50:48;;;;;;;47.13;30.02;;;9.20;99.90;;;;;;5036406;28;20274;-70
2022/12/26 01:53:23;;;;;;;45.30;30.25;;;9.10;99.90;;;;;;5050841;28;20468;-70
2022/12/26 01:55:57;;;;;;;37.70;27.42;;;9.10;99.90;;;;;;5050590;28;20048;-73
2022/12/26 01:58:29;;;;;;;42.67;28.10;;;9.10;99.90;;;;;;5049703;28;20028;-72
2022/12/26 02:00:55;;;;;;;40.75;28.23;;;9.10;99.90;;;;;;5050630;28;20025;-76
2022/12/26 02:06:08;;;;;;;41.72;28.45;;;9.10;99.90;;;;;;5053880;28;20159;-71
2022/12/26 02:08:37;;;;;;;36.13;25.02;;;9.10;99.90;;;;;;5053661;28;20044;-74
2022/12/26 02:11:16;;;;;;;41.03;26.27;;;9.10;99.90;;;;;;5056908;28;20150;-77
2022/12/26 02:13:42;;;;;;;36.38;25.48;;;9.10;99.90;;;;;;5052185;28;20013;-76
2022/12/26 02:16:11;;;;;;;40.42;26.65;;;9.10;99.90;;;;;;5053142;28;20358;-72
2022/12/26 02:18:37;;;;;;;41.80;26.33;;;9.10;99.90;;;;;;5052682;28;20017;-70
2022/12/26 02:21:33;;;;;;;38.78;26.92;;;9.10;99.90;;;;;;5049336;28;20047;-75
2022/12/26 02:24:15;;;;;;;45.95;29.17;;;9.10;99.90;;;;;;5052335;28;20486;-75
2022/12/26 02:26:55;;;;;;;48.92;31.23;;;9.10;99.90;;;;;;5053302;28;20434;-71
2022/12/26 02:29:33;;;;;;;43.83;30.27;;;9.00;99.90;;;;;;5057169;28;20018;-70
2022/12/26 02:32:13;;;;;;;46.28;30.80;;;8.90;99.90;;;;;;5049742;28;20052;-69
2022/12/26 02:34:54;;;;;;;40.90;30.20;;;8.90;99.90;;;;;;5033318;28;20037;-70
2022/12/26 02:37:35;;;;;;;44.70;28.10;;;9.00;99.90;;;;;;5056677;28;20499;-70
2022/12/26 02:40:16;;;;;;;51.03;32.45;;;9.00;99.90;;;;;;5052998;28;20384;-71
2022/12/26 02:42:48;;;;;;;48.30;32.40;;;9.00;99.90;;;;;;5052958;28;20025;-69
2022/12/26 02:48:41;;;;;;;45.45;32.78;;;9.00;99.90;;;;;;5051517;28;20508;-70
2022/12/26 03:15:16;;;;;;;41.15;28.00;;;9.00;99.90;;;;;;5035332;28;20044;-70
2022/12/26 03:17:56;;;;;;;41.28;26.80;;;9.00;99.90;;;;;;5053130;28;20021;-68
2022/12/26 03:20:32;;;;;;;41.88;24.88;;;9.00;99.90;;;;;;5053273;28;20391;-69
2022/12/26 03:23:20;;;;;;;35.90;24.48;;;8.90;99.90;;;;;;5052971;28;20045;-70
2022/12/26 03:28:43;;;;;;;37.65;24.92;;;8.80;99.90;;;;;;5052662;28;20029;-70
2022/12/26 03:31:11;;;;;;;37.05;25.73;;;8.80;99.90;;;;;;5051008;28;20464;-70
2022/12/26 03:36:47;;;;;;;43.25;28.35;;;8.60;99.90;;;;;;4972089;28;20050;-71
2022/12/26 03:39:19;;;;;;;43.58;29.20;;;8.60;99.90;;;;;;4972001;28;20046;-73
2022/12/26 04:20:57;;;;;;;45.17;31.85;;;8.00;99.90;;;;;;4963496;28;20506;-69
2022/12/26 04:44:09;;;;;;;49.13;32.30;;;7.80;99.90;;;;;;5044203;28;20116;-73
2022/12/26 04:46:40;;;;;;;41.22;29.17;;;7.80;99.90;;;;;;5053065;28;20032;-71
2022/12/26 04:51:56;;;;;;;83.97;66.20;;;7.80;99.90;;;;;;5047865;28;20029;-72
2022/12/26 04:54:22;;;;;;;69.25;51.25;;;7.80;99.90;;;;;;5050532;28;20029;-72
2022/12/26 04:56:48;;;;;;;70.47;48.45;;;7.90;99.90;;;;;;5054098;28;20056;-72
2022/12/26 04:59:15;;;;;;;57.17;41.85;;;7.80;99.90;;;;;;5054769;28;20017;-71
2022/12/26 05:10:05;;;;;;;59.13;41.40;;;7.80;99.90;;;;;;5044539;28;20025;-70
2022/12/26 05:12:31;;;;;;;84.75;53.45;;;7.80;99.90;;;;;;5054925;28;20037;-74
2022/12/26 05:14:57;;;;;;;71.82;49.03;;;7.70;99.90;;;;;;5055360;28;20085;-74
2022/12/26 05:28:41;;;;;;;94.07;65.53;;;7.70;99.90;;;;;;5054492;28;20095;-70
2022/12/26 05:31:12;;;;;;;81.85;56.17;;;7.70;99.90;;;;;;5053493;28;20025;-72
2022/12/26 05:36:27;;;;;;;83.93;56.78;;;7.60;99.90;;;;;;5054590;28;20044;-72
2022/12/26 05:38:55;;;;;;;65.15;43.97;;;7.50;99.90;;;;;;5054534;28;20392;-70
2022/12/26 05:41:21;;;;;;;51.95;36.83;;;7.40;99.90;;;;;;5054546;28;20032;-75
2022/12/26 05:43:47;;;;;;;50.53;36.03;;;7.40;99.90;;;;;;5052799;28;20022;-72
2022/12/26 05:46:13;;;;;;;75.40;47.97;;;7.40;99.90;;;;;;5049875;28;20147;-72
2022/12/26 05:48:39;;;;;;;51.95;31.38;;;7.40;99.90;;;;;;5046193;28;20109;-72
2022/12/26 05:51:05;;;;;;;46.42;33.75;;;7.40;99.90;;;;;;5050957;28;20029;-72
2022/12/26 05:53:32;;;;;;;56.40;36.55;;;7.50;99.90;;;;;;5042365;28;20038;-73
2022/12/26 05:56:05;;;;;;;47.00;34.47;;;7.50;99.90;;;;;;5053982;28;20476;-69
2022/12/26 05:58:32;;;;;;;69.30;49.00;;;7.40;99.90;;;;;;5054302;28;20504;-70
2022/12/26 06:01:06;;;;;;;56.03;36.58;;;7.30;99.90;;;;;;5052459;28;20025;-71
2022/12/26 06:03:32;;;;;;;61.55;42.55;;;7.30;99.90;;;;;;5044809;28;20032;-70
2022/12/26 06:05:58;;;;;;;60.75;42.63;;;7.40;99.90;;;;;;5053725;28;20021;-71
2022/12/26 06:08:24;;;;;;;65.60;43.83;;;7.30;99.90;;;;;;5054470;28;20033;-71
2022/12/26 06:10:50;;;;;;;83.15;49.40;;;7.40;99.90;;;;;;5054403;28;20025;-71
2022/12/26 06:13:16;;;;;;;63.15;41.60;;;7.40;99.90;;;;;;5066129;28;20415;-71
2022/12/26 06:15:41;;;;;;;83.65;52.67;;;7.40;99.90;;;;;;5054401;28;20090;-73
2022/12/26 06:18:07;;;;;;;87.63;58.67;;;7.40;99.90;;;;;;5054335;28;20044;-75
2022/12/26 06:20:33;;;;;;;77.85;51.30;;;7.40;99.90;;;;;;5035761;28;20040;-74
2022/12/26 06:22:59;;;;;;;71.10;48.85;;;7.50;99.90;;;;;;5054156;28;20052;-71
2022/12/26 06:25:25;;;;;;;65.38;45.03;;;7.50;99.90;;;;;;5053433;28;20447;-71
2022/12/26 06:27:51;;;;;;;62.88;44.85;;;7.60;99.90;;;;;;5053409;28;20021;-73
2022/12/26 06:30:16;;;;;;;53.88;36.97;;;7.60;99.90;;;;;;5054160;28;20472;-70
2022/12/26 06:32:42;;;;;;;56.97;41.38;;;7.70;99.90;;;;;;5053917;28;20032;-73
2022/12/26 06:35:08;;;;;;;56.50;42.25;;;7.80;99.90;;;;;;5053428;28;20032;-71
2022/12/26 06:37:34;;;;;;;53.63;35.58;;;7.70;99.90;;;;;;5053986;28;20539;-71
2022/12/26 06:40:00;;;;;;;69.93;50.83;;;7.70;99.90;;;;;;5053350;28;20575;-71
2022/12/26 06:42:27;;;;;;;64.95;44.17;;;7.60;99.90;;;;;;5053495;28;20040;-72
2022/12/26 06:44:52;;;;;;;84.15;56.78;;;7.60;99.90;;;;;;5053431;28;20032;-72
2022/12/26 06:47:18;;;;;;;75.95;47.45;;;7.80;99.90;;;;;;5053616;28;20033;-74
2022/12/26 06:49:44;;;;;;;78.07;53.70;;;7.80;99.90;;;;;;5053293;28;20048;-71
2022/12/26 06:52:10;;;;;;;61.97;40.95;;;7.90;99.90;;;;;;5053463;28;20104;-74
2022/12/26 06:54:36;;;;;;;55.80;40.28;;;8.00;99.90;;;;;;5035831;28;20111;-71
2022/12/26 06:57:02;;;;;;;60.47;45.08;;;7.90;99.90;;;;;;5053471;28;20101;-71
2022/12/26 06:59:28;;;;;;;57.13;44.78;;;8.00;99.90;;;;;;5052607;28;20025;-71
2022/12/26 07:01:54;;;;;;;68.95;51.47;;;8.00;99.90;;;;;;5052805;28;20037;-71
2022/12/26 07:04:19;;;;;;;59.85;44.65;;;8.00;99.90;;;;;;5053034;28;20013;-71
2022/12/26 07:06:45;;;;;;;78.47;54.95;;;8.00;99.90;;;;;;5053223;28;20029;-71
2022/12/26 07:09:13;;;;;;;88.03;60.50;;;7.90;99.90;;;;;;5052501;28;20017;-72
2022/12/26 07:11:43;;;;;;;75.72;54.10;;;7.90;99.90;;;;;;5053213;28;20365;-71
2022/12/26 07:14:09;;;;;;;74.00;51.13;;;8.00;99.90;;;;;;5053240;28;20029;-71
2022/12/26 07:16:36;;;;;;;67.95;45.67;;;8.00;99.90;;;;;;5039545;28;20163;-71
2022/12/26 07:19:02;;;;;;;63.78;42.70;;;7.90;99.90;;;;;;5051495;28;20041;-71
2022/12/26 07:21:28;;;;;;;64.35;45.97;;;8.00;99.90;;;;;;5052883;28;20040;-71
2022/12/26 07:23:54;;;;;;;72.93;48.63;;;8.00;99.90;;;;;;5053188;28;20092;-71
2022/12/26 07:26:21;;;;;;;70.03;48.75;;;8.00;99.90;;;;;;5053582;28;20090;-75
2022/12/26 07:28:47;;;;;;;66.15;44.70;;;8.10;99.90;;;;;;5052699;28;20472;-70
2022/12/26 07:31:17;;;;;;;54.80;38.58;;;8.20;99.90;;;;;;5052504;28;20028;-72
2022/12/26 07:33:47;;;;;;;54.75;39.38;;;8.30;99.90;;;;;;5053088;28;20032;-71
2022/12/26 07:36:13;;;;;;;56.13;37.10;;;8.40;99.90;;;;;;5052923;28;20111;-72
2022/12/26 07:38:39;;;;;;;52.72;38.30;;;8.60;99.90;;;;;;5045934;28;20514;-71
2022/12/26 07:41:56;;;;;;;49.97;36.15;;;8.70;99.90;;;;;;5052609;28;20025;-70
2022/12/26 07:43:51;;;;;;;50.25;36.20;;;8.80;99.90;;;;;;5044931;28;20025;-74
2022/12/26 07:46:17;;;;;;;54.15;37.63;;;8.90;99.90;;;;;;5047496;28;20025;-70
2022/12/26 07:48:43;;;;;;;57.22;41.97;;;9.10;99.90;;;;;;5050886;28;20013;-71
2022/12/26 07:51:09;;;;;;;52.72;35.65;;;9.10;99.90;;;;;;5052793;28;20487;-71
2022/12/26 07:53:35;;;;;;;51.70;39.10;;;9.30;99.90;;;;;;5053128;28;20079;-71
2022/12/26 07:56:01;;;;;;;57.22;34.83;;;9.30;99.90;;;;;;5052319;28;20037;-74
2022/12/26 07:58:27;;;;;;;41.47;30.33;;;9.40;99.90;;;;;;5052582;28;20033;-71
2022/12/26 08:00:53;;;;;;;44.80;30.35;;;9.50;99.90;;;;;;5052591;28;20032;-71
2022/12/26 08:03:19;;;;;;;35.38;25.75;;;9.50;99.90;;;;;;5052638;28;20104;-71
2022/12/26 08:05:47;;;;;;;33.55;23.67;;;9.30;99.90;;;;;;5051969;28;20025;-71
2022/12/26 08:08:13;;;;;;;39.10;27.77;;;9.40;99.90;;;;;;5039976;28;20046;-71
2022/12/26 08:10:40;;;;;;;37.15;27.58;;;9.50;99.90;;;;;;5052792;28;20024;-71
2022/12/26 08:13:06;;;;;;;37.03;26.60;;;9.60;99.90;;;;;;5052013;28;20434;-71
2022/12/26 08:15:32;;;;;;;37.47;27.88;;;9.80;99.90;;;;;;5053050;28;20033;-70
2022/12/26 08:17:57;;;;;;;36.33;21.63;;;9.60;99.90;;;;;;5056653;28;20507;-70
2022/12/26 08:20:23;;;;;;;31.23;20.15;;;9.80;99.90;;;;;;5056439;28;20417;-72
2022/12/26 08:22:50;;;;;;;33.13;21.38;;;10.00;99.90;;;;;;5052084;28;20056;-71
2022/12/26 08:25:16;;;;;;;33.63;22.77;;;10.10;99.90;;;;;;5056099;28;20472;-71
2022/12/26 08:27:43;;;;;;;33.25;21.92;;;10.10;99.90;;;;;;5055852;28;20111;-71
2022/12/26 08:30:09;;;;;;;29.80;20.35;;;10.40;99.90;;;;;;5056326;28;20108;-71
2022/12/26 08:32:35;;;;;;;34.78;24.83;;;10.50;99.90;;;;;;5056245;28;20059;-71
2022/12/26 08:35:02;;;;;;;34.28;21.63;;;10.50;99.90;;;;;;5055883;28;20065;-71
2022/12/26 08:37:28;;;;;;;30.50;21.63;;;10.70;99.90;;;;;;5056077;28;20033;-71
2022/12/26 08:39:56;;;;;;;33.25;23.30;;;10.80;99.90;;;;;;5055984;28;20048;-71
2022/12/26 08:42:22;;;;;;;34.85;23.77;;;10.90;99.90;;;;;;5056282;28;20476;-70
2022/12/26 08:44:48;;;;;;;45.33;25.08;;;11.10;99.90;;;;;;5042354;28;20055;-71
2022/12/26 08:47:14;;;;;;;37.60;25.25;;;11.20;99.90;;;;;;5056098;28;20025;-71
2022/12/26 08:49:40;;;;;;;37.67;25.35;;;11.20;99.90;;;;;;5052946;28;20100;-70
2022/12/26 08:52:06;;;;;;;35.63;26.33;;;11.40;99.90;;;;;;5054141;28;20067;-70
2022/12/26 08:54:32;;;;;;;43.28;28.05;;;11.50;99.90;;;;;;5042488;28;20048;-75
2022/12/26 08:56:58;;;;;;;45.38;28.58;;;11.70;99.90;;;;;;5055910;28;20484;-71
2022/12/26 08:59:24;;;;;;;44.22;28.67;;;11.70;99.90;;;;;;5055816;28;20021;-71
2022/12/26 09:01:50;;;;;;;45.15;29.75;;;11.70;99.90;;;;;;5047023;28;20030;-71
2022/12/26 09:04:16;;;;;;;42.55;29.58;;;11.80;99.90;;;;;;5051480;28;20028;-72
2022/12/26 09:06:42;;;;;;;44.33;31.25;;;11.90;99.90;;;;;;5055101;28;20029;-71
2022/12/26 09:09:10;;;;;;;53.15;31.45;;;11.90;99.90;;;;;;5054143;28;20378;-71
2022/12/26 09:11:36;;;;;;;44.45;29.63;;;12.00;99.90;;;;;;5054982;28;20533;-71
2022/12/26 09:14:03;;;;;;;50.65;34.80;;;12.10;99.90;;;;;;5054984;28;20026;-73
2022/12/26 09:16:41;;;;;;;54.33;33.65;;;12.20;99.90;;;;;;5055033;28;20028;-71
2022/12/26 09:19:11;;;;;;;51.40;36.28;;;12.30;99.90;;;;;;5054145;28;20052;-71
2022/12/26 09:21:37;;;;;;;52.30;35.63;;;12.40;99.90;;;;;;5051598;28;20128;-71
2022/12/26 09:24:06;;;;;;;48.20;34.17;;;12.40;99.90;;;;;;5040076;28;20108;-75
2022/12/26 09:26:33;;;;;;;44.03;28.45;;;12.50;99.90;;;;;;5054763;28;20057;-72
2022/12/26 09:28:59;;;;;;;48.38;30.55;;;12.40;99.90;;;;;;5054920;28;20075;-72
2022/12/26 09:31:28;;;;;;;46.42;28.23;;;12.40;99.90;;;;;;5055240;28;20060;-71
2022/12/26 09:33:54;;;;;;;37.15;27.60;;;12.30;99.90;;;;;;5053087;28;20104;-71
2022/12/26 09:36:26;;;;;;;42.70;28.20;;;12.60;99.90;;;;;;5055078;28;20492;-72
2022/12/26 09:38:53;;;;;;;45.60;32.13;;;12.60;99.90;;;;;;5042135;28;20063;-72
2022/12/26 09:41:30;;;;;;;41.67;29.92;;;12.60;99.90;;;;;;5041521;28;20028;-76
2022/12/26 09:44:05;;;;;;;49.50;30.00;;;12.60;99.90;;;;;;5052391;28;20035;-72
2022/12/26 09:46:46;;;;;;;53.15;32.55;;;12.60;99.90;;;;;;5054749;28;20021;-71
2022/12/26 09:49:26;;;;;;;46.38;32.42;;;12.70;99.90;;;;;;5054859;28;20029;-71
2022/12/26 09:52:05;;;;;;;49.30;34.35;;;12.70;99.90;;;;;;5042412;28;20075;-72
2022/12/26 09:54:31;;;;;;;50.78;33.80;;;12.90;99.90;;;;;;5054447;28;20029;-72
2022/12/26 09:56:59;;;;;;;55.50;34.58;;;13.00;99.90;;;;;;5054642;28;20381;-72
2022/12/26 09:59:26;;;;;;;48.25;35.78;;;13.10;99.90;;;;;;5054301;28;20057;-75
2022/12/26 10:01:52;;;;;;;50.15;31.90;;;13.20;99.90;;;;;;5054753;28;20051;-71
2022/12/26 10:04:23;;;;;;;51.20;32.60;;;13.20;99.90;;;;;;5054136;28;20074;-74
2022/12/26 10:07:04;;;;;;;45.85;31.40;;;13.30;99.90;;;;;;5054463;28;20052;-71
2022/12/26 10:10:05;;;;;;;39.38;28.00;;;13.50;99.90;;;;;;5054232;28;20151;-72
2022/12/26 10:12:37;;;;;;;43.45;29.60;;;13.50;99.90;;;;;;4943011;29;20523;-71
2022/12/26 10:15:31;;;;;;;40.33;27.75;;;13.50;99.90;;;;;;4952226;29;20507;-75
2022/12/26 10:18:19;;;;;;;42.53;28.50;;;13.50;99.90;;;;;;4937712;29;20050;-73
2022/12/26 10:21:12;;;;;;;43.92;30.00;;;13.60;99.90;;;;;;4948606;29;20397;-71
2022/12/26 10:23:39;;;;;;;;;;;13.70;99.90;;;;;;4952089;28;20051;-71
2022/12/26 10:26:39;;;;;;;42.95;29.27;;;13.80;99.90;;;;;;4953902;28;19913;-71
2022/12/26 10:29:08;;;;;;;70.78;44.95;;;13.90;99.90;;;;;;4888170;29;20505;-74
2022/12/26 10:31:43;;;;;;;62.80;45.47;;;13.90;99.90;;;;;;4877885;29;20181;-71
2022/12/26 10:34:11;;;;;;;54.58;39.28;;;14.00;99.90;;;;;;4879149;29;20041;-71
2022/12/26 10:36:47;;;;;;;57.25;38.65;;;14.00;99.90;;;;;;4880387;29;20069;-71
2022/12/26 10:39:56;;;;;;;51.72;34.60;;;14.10;99.90;;;;;;4877454;29;20084;-71
2022/12/26 10:42:38;;;;;;;52.72;34.17;;;14.20;99.90;;;;;;4867373;29;20576;-71
2022/12/26 10:45:29;;;;;;;44.70;35.10;;;14.20;99.90;;;;;;4877875;29;20564;-72
2022/12/26 10:47:55;;;;;;;49.90;34.40;;;14.20;99.90;;;;;;4934278;29;20111;-72
2022/12/26 10:50:30;;;;;;;51.53;31.98;;;14.30;99.90;;;;;;4928876;29;20027;-76
2022/12/26 10:52:57;;;;;;;43.67;27.08;;;14.30;99.90;;;;;;4918517;29;20140;-74
2022/12/26 10:55:31;;;;;;;44.17;27.77;;;14.40;99.90;;;;;;4934176;29;20027;-71
2022/12/26 10:58:05;;;;;;;37.92;25.73;;;14.50;99.90;;;;;;4934349;29;20583;-72
2022/12/26 11:00:33;;;;;;;36.40;28.13;;;14.50;99.90;;;;;;4934199;29;20515;-73
2022/12/26 11:03:09;;;;;;;49.10;30.05;;;14.50;99.90;;;;;;4934049;29;20024;-72
2022/12/26 11:05:50;;;;;;;37.63;26.55;;;14.60;99.90;;;;;;5010665;28;20092;-69
2022/12/26 11:08:25;;;;;;;36.67;24.30;;;14.60;99.90;;;;;;5031350;28;20037;-70
2022/12/26 11:11:03;;;;;;;33.50;24.10;;;14.70;99.90;;;;;;5033347;28;20067;-70
2022/12/26 11:13:34;;;;;;;32.03;22.08;;;14.70;99.90;;;;;;5020343;28;20048;-73
2022/12/26 11:16:01;;;;;;;40.65;24.42;;;14.70;99.90;;;;;;5032899;28;20099;-70
2022/12/26 11:18:37;;;;;;;33.05;22.17;;;14.90;99.90;;;;;;5033135;28;20021;-76
2022/12/26 11:21:18;;;;;;;34.95;23.30;;;14.90;99.90;;;;;;5037891;28;20488;-72
2022/12/26 11:23:45;;;;;;;35.13;24.63;;;15.10;99.90;;;;;;5052785;28;20029;-75
2022/12/26 11:26:29;;;;;;;32.97;22.42;;;15.20;99.90;;;;;;5052983;28;20021;-76
2022/12/26 11:29:10;;;;;;;31.50;19.92;;;15.40;99.90;;;;;;5043234;28;20021;-72
2022/12/26 11:31:55;;;;;;;29.60;20.53;;;15.40;99.90;;;;;;5052927;28;20048;-71
2022/12/26 11:34:46;;;;;;;29.92;18.20;;;15.40;99.90;;;;;;5040470;28;20021;-70
2022/12/26 11:37:28;;;;;;;37.70;18.85;;;15.60;99.90;;;;;;5052940;28;20065;-70
2022/12/26 11:39:55;;;;;;;29.88;19.80;;;15.60;99.90;;;;;;5053290;28;20064;-73
2022/12/26 11:42:24;;;;;;;28.05;17.23;;;15.70;99.90;;;;;;5039633;28;20049;-71
2022/12/26 11:44:53;;;;;;;29.33;19.15;;;15.80;99.90;;;;;;5052777;28;20033;-70
2022/12/26 11:47:24;;;;;;;26.90;18.25;;;15.90;99.90;;;;;;5042101;28;20079;-71
2022/12/26 11:50:05;;;;;;;33.10;20.13;;;15.90;99.90;;;;;;5053904;28;20025;-75
2022/12/26 11:52:42;;;;;;;32.95;20.80;;;16.00;99.90;;;;;;5050485;28;20028;-72
2022/12/26 11:55:23;;;;;;;39.97;24.48;;;16.10;99.90;;;;;;5050587;28;20104;-74
2022/12/26 11:57:55;;;;;;;26.52;17.92;;;16.10;99.90;;;;;;5048777;28;20025;-74
2022/12/26 12:00:21;;;;;;;28.65;19.23;;;16.20;99.90;;;;;;5056869;28;20028;-72
2022/12/26 12:02:47;;;;;;;31.00;19.42;;;16.20;99.90;;;;;;5057168;28;20464;-73
2022/12/26 12:05:51;;;;;;;34.72;18.77;;;16.30;99.90;;;;;;5056808;28;20222;-72
2022/12/26 12:08:23;;;;;;;33.75;20.63;;;16.30;99.90;;;;;;4975932;28;20034;-73
2022/12/26 12:11:04;;;;;;;26.60;18.58;;;16.30;99.90;;;;;;4973660;28;20112;-72
2022/12/26 12:13:41;;;;;;;31.75;20.65;;;16.30;99.90;;;;;;4975810;28;20035;-72
2022/12/26 12:16:34;;;;;;;32.28;22.80;;;16.30;99.90;;;;;;4975076;28;20086;-71
2022/12/26 12:19:18;;;;;;;26.37;16.93;;;16.40;99.90;;;;;;4972839;28;20548;-71
2022/12/26 12:22:08;;;;;;;27.23;16.95;;;16.40;99.90;;;;;;4970795;28;20549;-72
2022/12/26 12:24:58;;;;;;;31.40;16.98;;;16.50;99.90;;;;;;4975770;28;20035;-71
2022/12/26 12:27:48;;;;;;;26.23;17.50;;;16.50;99.90;;;;;;4969925;28;20122;-71
2022/12/26 12:30:21;;;;;;;23.23;15.38;;;16.60;99.90;;;;;;4957865;28;20043;-70
2022/12/26 12:33:05;;;;;;;26.83;15.43;;;16.70;99.90;;;;;;4969436;28;20482;-71
2022/12/26 12:35:47;;;;;;;24.90;15.13;;;16.70;99.90;;;;;;4975406;28;20090;-75
2022/12/26 12:38:42;;;;;;;25.13;15.40;;;16.70;99.90;;;;;;4971345;28;20081;-72
2022/12/26 12:41:17;;;;;;;25.40;14.18;;;16.80;99.90;;;;;;4977925;28;20037;-71
2022/12/26 12:43:48;;;;;;;27.75;14.13;;;16.80;99.90;;;;;;5052365;28;20021;-70
2022/12/26 12:46:32;;;;;;;19.35;11.50;;;16.70;99.90;;;;;;5056002;28;20032;-70
2022/12/26 12:49:29;;;;;;;22.92;13.98;;;16.70;99.90;;;;;;5055926;28;20035;-70
2022/12/26 12:52:36;;;;;;;22.75;12.60;;;16.70;99.90;;;;;;5055878;28;20375;-71
2022/12/26 12:55:20;;;;;;;19.20;11.35;;;16.70;99.90;;;;;;4955630;28;20039;-70
2022/12/26 12:58:00;;;;;;;20.23;11.75;;;16.70;99.90;;;;;;4955508;29;20062;-71
2022/12/26 13:00:37;;;;;;;22.08;13.80;;;16.70;99.90;;;;;;4955334;28;20027;-71
2022/12/26 13:03:35;;;;;;;19.75;10.60;;;16.70;99.90;;;;;;4942678;29;20530;-71
2022/12/26 13:06:04;;;;;;;13.30;8.23;;;16.70;99.90;;;;;;4861202;29;20048;-71
2022/12/26 13:09:11;;;;;;;19.70;11.00;;;16.70;99.90;;;;;;4861247;29;20394;-71
2022/12/26 13:11:45;;;;;;;26.20;14.65;;;16.70;99.90;;;;;;4824480;29;20106;-71
2022/12/26 13:14:18;;;;;;;22.75;11.77;;;16.70;99.90;;;;;;4824128;29;20078;-70
2022/12/26 13:17:45;;;;;;;25.65;15.98;;;16.70;99.90;;;;;;4824057;29;20090;-70
2022/12/26 13:20:27;;;;;;;17.50;8.82;;;16.70;99.90;;;;;;4734534;30;20063;-70
2022/12/26 13:25:49;;;;;;;21.00;11.57;;;16.80;99.90;;;;;;4734347;30;20144;-70
2022/12/26 13:28:26;;;;;;;18.52;10.35;;;16.70;99.90;;;;;;4733981;30;20246;-70
2022/12/26 13:30:53;;;;;;;11.25;5.38;;;16.70;99.90;;;;;;4765745;29;20125;-71
2022/12/26 13:33:19;;;;;;;13.95;7.20;;;16.70;99.90;;;;;;4787086;29;20047;-71
2022/12/26 13:36:00;;;;;;;14.88;6.43;;;16.70;99.90;;;;;;4786991;29;20055;-71
2022/12/26 13:38:55;;;;;;;13.93;6.25;;;16.70;99.90;;;;;;4787073;29;20047;-70
2022/12/26 13:44:25;;;;;;;7.55;4.28;;;16.70;99.90;;;;;;4839357;29;20049;-71
2022/12/26 13:46:50;;;;;;;8.30;5.38;;;16.60;99.90;;;;;;4847489;29;20045;-70
2022/12/26 13:49:35;;;;;;;10.95;6.10;;;16.60;99.90;;;;;;4897799;29;20068;-70
2022/12/26 13:52:09;;;;;;;15.55;9.07;;;16.60;99.90;;;;;;4897750;29;20028;-70
2022/12/26 13:54:49;;;;;;;17.77;9.38;;;16.50;99.90;;;;;;4905113;29;20081;-70
2022/12/26 13:57:43;;;;;;;15.68;9.27;;;16.50;99.90;;;;;;5027674;28;20127;-70
2022/12/26 14:00:35;;;;;;;14.07;7.00;;;16.30;99.90;;;;;;5052236;28;20017;-71
2022/12/26 14:03:07;;;;;;;16.70;6.80;;;16.20;99.90;;;;;;5053762;28;20044;-71
2022/12/26 14:05:42;;;;;;;26.52;9.80;;;16.10;99.90;;;;;;5053945;28;20078;-71
2022/12/26 14:09:03;;;;;;;19.42;9.63;;;16.00;99.90;;;;;;5049993;28;20021;-71
2022/12/26 14:11:59;;;;;;;20.20;11.05;;;15.90;99.90;;;;;;5053529;28;20037;-71
2022/12/26 14:14:43;;;;;;;19.85;11.90;;;15.80;99.90;;;;;;5052163;28;20452;-70
2022/12/26 14:17:32;;;;;;;36.55;20.65;;;15.70;99.90;;;;;;5052934;28;20037;-71
2022/12/26 14:20:21;;;;;;;49.80;32.72;;;15.50;99.90;;;;;;5050688;28;20056;-70
2022/12/26 14:23:20;;;;;;;46.88;30.15;;;15.40;99.90;;;;;;5052378;28;20377;-70
2022/12/26 14:26:12;;;;;;;29.13;20.05;;;15.40;99.90;;;;;;5051144;28;20498;-70
2022/12/26 14:29:02;;;;;;;40.05;20.92;;;15.20;99.90;;;;;;5053533;28;20472;-71
2022/12/26 14:31:41;;;;;;;34.28;20.60;;;15.20;99.90;;;;;;5050408;28;20055;-70
2022/12/26 14:34:34;;;;;;;37.47;21.85;;;15.10;99.90;;;;;;5052633;28;20150;-71
2022/12/26 14:37:42;;;;;;;43.03;24.08;;;15.00;99.90;;;;;;5052571;28;20036;-71
2022/12/26 14:40:28;;;;;;;67.60;45.17;;;14.90;99.90;;;;;;4989579;28;20042;-71
2022/12/26 14:43:12;;;;;;;37.47;26.95;;;14.80;99.90;;;;;;4986815;28;20026;-71
2022/12/26 14:45:44;;;;;;;59.20;39.47;;;14.70;99.90;;;;;;4990873;28;20077;-71
2022/12/26 14:48:16;;;;;;;56.55;39.83;;;14.50;99.90;;;;;;4983202;28;20383;-71
2022/12/26 14:50:51;;;;;;;53.33;35.58;;;14.40;99.90;;;;;;4989200;28;20045;-71
2022/12/26 14:53:28;;;;;;;81.93;48.28;;;14.30;99.90;;;;;;4975319;28;20038;-72
2022/12/26 14:56:09;;;;;;;119.65;79.70;;;14.20;99.90;;;;;;4990989;28;20057;-71
2022/12/26 14:59:12;;;;;;;89.90;59.75;;;14.20;99.90;;;;;;4972587;28;20027;-71
2022/12/26 15:01:38;;;;;;;100.18;64.53;;;14.10;99.90;;;;;;4989799;28;20034;-76
2022/12/26 15:04:21;;;;;;;87.00;51.85;;;14.00;99.90;;;;;;4991446;28;20120;-71
2022/12/26 15:07:18;;;;;;;108.65;61.50;;;14.00;99.90;;;;;;4989806;28;20511;-72
2022/12/26 15:10:11;;;;;;;80.38;52.80;;;13.90;99.90;;;;;;4985693;28;20039;-72
2022/12/26 15:12:46;;;;;;;;;;;13.80;99.90;;;;;;4987915;28;20034;-71